Willis, MI (48191)

11:44 PM EDT on April 27, 2017 (GMT -0400)
Sumpter Township | | Change Station

Elev 666 ft 42.13 °N, 83.54 °W | Updated 1 minute ago

Overcast
Overcast
51.4 °F
Feels Like 51.4 °F
N
3.0
Wind Variable Wind from ESE

Today
High -- | Low -- °F
--% Chance of Precip.
Yesterday
High -- | Low -- °F
Precip. -- in
Pressure 29.79 in
Visibility 10.0 miles
Clouds Overcast 3500 ft
Dew Point 43 °F
Humidity 73%
Rainfall 0.05 in
Snow Depth Not available.
6:35 AM 8:29 PM
Waxing Crescent, 4% visible
METAR KYIP 280253Z 25014KT 10SM OVC035 12/04 A2980 RMK AO2 PK WND 25026/0233 SLP086 T01170044 51032
Pressure 29.79 in
Visibility 10.0 miles
Clouds Overcast 3500 ft
Dew Point 43 °F
Humidity 73%
Rainfall 0.05 in
Snow Depth Not available.
6:35 AM 8:29 PM
Waxing Crescent, 4% visible
METAR KYIP 280253Z 25014KT 10SM OVC035 12/04 A2980 RMK AO2 PK WND 25026/0233 SLP086 T01170044 51032

Get Severe Weather Alerts

Thanks for signing up!

Be on the lookout for a verification email in your inbox.

You'll start receiving the daily forecast at 8 AM.

×

10-Day Weather Forecast

Almanac

Astronomy

Apr. 27, 2017 Rise Set
Actual Time
Civil Twilight
Nautical Twilight
Astronomical Twilight
Moon
Length of Visible Light
Length of Day
Tomorrow will be .
, % of the Moon is Illuminated

Today's Extremes

State Highs State Lows

Community

WunderPhotos

WunderBlog® & News

Nearby

Air Quality

  Air Quality AQ Index Pollutant
Not available.

Snow Depth

Station Depth Elevation

Earthquake Activity

City Distance Mag. Time & Date
Minimum magnitude displayed is 2.5.

Coastal Water Temperatures

Place Temperature

Stations

Nearby Weather Stations

Station Location Temp. Windchill Dew Point Humidity Wind Precip. Elev Updated Type
                   

Watches & Warnings

There are currently no watches in effect.